createdAt,value
2023-04-24T00:00:27.205Z,204.13
2023-04-24T00:01:27.261Z,209.71
2023-04-24T00:02:27.400Z,207.63
2023-04-24T00:03:27.450Z,201.84
2023-04-24T00:04:27.614Z,205.44
2023-04-24T00:05:27.481Z,204.57
2023-04-24T00:06:27.536Z,207.21
2023-04-24T00:07:27.589Z,208.89
2023-04-24T00:08:27.648Z,203.99
2023-04-24T00:09:27.706Z,205.58
2023-04-24T00:10:27.767Z,205.44
2023-04-24T00:11:27.817Z,207.88
2023-04-24T00:12:27.875Z,202.80
2023-04-24T00:13:27.935Z,205.25
2023-04-24T00:14:28.004Z,206.85
2023-04-24T00:15:28.066Z,203.46
2023-04-24T00:16:28.169Z,205.68
2023-04-24T00:17:28.210Z,205.41
2023-04-24T00:18:28.220Z,201.82
2023-04-24T00:19:28.274Z,204.26
2023-04-24T00:20:28.333Z,205.72
2023-04-24T00:21:28.394Z,206.82
2023-04-24T00:22:28.453Z,204.81
2023-04-24T00:23:28.508Z,202.77
2023-04-24T00:24:28.557Z,203.86
2023-04-24T00:25:28.619Z,204.35
2023-04-24T00:26:28.673Z,205.39
2023-04-24T00:27:28.720Z,205.80
2023-04-24T00:28:28.782Z,204.31
2023-04-24T00:29:28.835Z,201.93
2023-04-24T00:30:28.887Z,201.32
2023-04-24T00:31:28.988Z,207.50
2023-04-24T00:32:29.058Z,202.82
2023-04-24T00:33:29.067Z,208.38
2023-04-24T00:34:29.130Z,207.45
2023-04-24T00:35:29.177Z,206.25
2023-04-24T00:36:29.242Z,206.97
2023-04-24T00:37:29.298Z,203.65
2023-04-24T00:38:29.362Z,204.94
2023-04-24T00:39:29.425Z,206.59
2023-04-24T00:40:29.486Z,204.65
2023-04-24T00:41:29.531Z,207.09
2023-04-24T00:42:29.593Z,207.64
2023-04-24T00:43:29.657Z,201.80
2023-04-24T00:44:29.724Z,204.63
2023-04-24T00:45:29.776Z,205.05
2023-04-24T00:46:29.903Z,207.00
2023-04-24T00:47:29.921Z,205.69
2023-04-24T00:48:29.965Z,206.80
2023-04-24T00:49:30.014Z,203.64
2023-04-24T00:50:30.076Z,202.54
2023-04-24T00:51:30.136Z,207.31
2023-04-24T00:52:30.220Z,205.76
2023-04-24T00:53:30.256Z,201.94
2023-04-24T00:54:30.314Z,206.38
2023-04-24T00:55:30.372Z,205.87
2023-04-24T00:56:30.427Z,206.29
2023-04-24T00:57:30.483Z,205.75
2023-04-24T00:58:30.542Z,206.55
2023-04-24T00:59:30.607Z,204.81
2023-04-24T01:00:30.677Z,204.63
2023-04-24T01:01:30.737Z,202.04
2023-04-24T01:02:30.878Z,206.74
2023-04-24T01:03:31.033Z,207.71
2023-04-24T01:04:31.029Z,206.86
2023-04-24T01:05:30.993Z,208.80
2023-04-24T01:06:31.035Z,207.01
2023-04-24T01:07:31.105Z,205.02
2023-04-24T01:08:31.168Z,208.18
2023-04-24T01:09:31.233Z,203.33
2023-04-24T01:10:31.308Z,205.61
2023-04-24T01:11:31.365Z,205.99
2023-04-24T01:12:31.432Z,205.47
2023-04-24T01:13:31.495Z,204.01
2023-04-24T01:14:31.581Z,207.51
2023-04-24T01:15:31.632Z,207.94
2023-04-24T01:16:31.714Z,206.71
2023-04-24T01:17:31.785Z,202.34
2023-04-24T01:18:31.816Z,206.89
2023-04-24T01:19:31.902Z,201.09
2023-04-24T01:20:31.953Z,205.12
2023-04-24T01:21:32.019Z,204.72
2023-04-24T01:22:32.083Z,204.45
2023-04-24T01:23:32.150Z,203.89
2023-04-24T01:24:32.203Z,208.55
2023-04-24T01:25:32.268Z,207.18
2023-04-24T01:26:32.332Z,206.32
2023-04-24T01:27:32.389Z,204.89
2023-04-24T01:28:32.463Z,208.14
2023-04-24T01:29:32.529Z,206.15
2023-04-24T01:30:32.594Z,207.89
2023-04-24T01:31:32.709Z,205.73
2023-04-24T01:32:32.765Z,204.28
2023-04-24T01:33:32.764Z,201.77
2023-04-24T01:34:32.838Z,203.34
2023-04-24T01:35:32.909Z,205.60
2023-04-24T01:36:33.031Z,205.10
2023-04-24T01:37:33.018Z,202.31
2023-04-24T01:38:33.083Z,206.31
2023-04-24T01:39:33.141Z,205.52
2023-04-24T01:40:33.207Z,205.73
2023-04-24T01:41:33.268Z,205.87
2023-04-24T01:42:33.339Z,206.83
2023-04-24T01:43:33.397Z,204.38
2023-04-24T01:44:33.468Z,203.86
2023-04-24T01:45:33.525Z,205.05
2023-04-24T01:46:33.618Z,205.02
2023-04-24T01:47:33.654Z,204.73
2023-04-24T01:48:33.708Z,205.57
2023-04-24T01:49:33.791Z,202.20
2023-04-24T01:50:33.855Z,204.90
2023-04-24T01:51:33.912Z,202.69
2023-04-24T01:52:33.971Z,201.76
2023-04-24T01:53:34.036Z,200.82
2023-04-24T01:54:34.117Z,201.74
2023-04-24T01:55:34.155Z,200.69
2023-04-24T01:56:34.229Z,204.30
2023-04-24T01:57:34.278Z,206.19
2023-04-24T01:58:34.338Z,202.60
2023-04-24T01:59:34.409Z,205.21
2023-04-24T02:00:34.488Z,203.81
2023-04-24T02:01:34.537Z,203.97
2023-04-24T02:02:34.680Z,203.04
2023-04-24T02:03:34.993Z,201.09
2023-04-24T02:04:34.736Z,203.21
2023-04-24T02:05:34.798Z,203.37
2023-04-24T02:06:34.868Z,205.49
2023-04-24T02:07:34.914Z,203.86
2023-04-24T02:08:34.981Z,199.02
2023-04-24T02:09:35.061Z,205.84
2023-04-24T02:10:35.113Z,201.77
2023-04-24T02:11:35.196Z,201.41
2023-04-24T02:12:35.248Z,204.61
2023-04-24T02:13:35.325Z,202.13
2023-04-24T02:14:35.389Z,201.93
2023-04-24T02:15:35.453Z,204.34
2023-04-24T02:16:35.577Z,202.94
2023-04-24T02:17:35.638Z,204.39
2023-04-24T02:18:35.639Z,201.72
2023-04-24T02:19:35.718Z,204.94
2023-04-24T02:20:35.779Z,205.24
2023-04-24T02:21:35.853Z,208.69
2023-04-24T02:22:35.906Z,205.22
2023-04-24T02:23:35.983Z,206.16
2023-04-24T02:24:36.066Z,206.31
2023-04-24T02:25:36.126Z,205.05
2023-04-24T02:26:36.191Z,204.63
2023-04-24T02:27:36.235Z,200.38
2023-04-24T02:28:36.325Z,204.14
2023-04-24T02:29:36.375Z,205.77
2023-04-24T02:30:36.446Z,202.50
2023-04-24T02:31:36.551Z,203.73
2023-04-24T02:32:36.579Z,205.44
2023-04-24T02:33:36.648Z,203.53
2023-04-24T02:34:36.714Z,205.74
2023-04-24T02:35:36.797Z,204.29
2023-04-24T02:36:36.868Z,204.51
2023-04-24T02:37:36.920Z,204.24
2023-04-24T02:38:36.976Z,204.49
2023-04-24T02:39:37.036Z,205.34
2023-04-24T02:40:37.097Z,202.87
2023-04-24T02:41:37.158Z,203.63
2023-04-24T02:42:37.220Z,203.26
2023-04-24T02:43:37.289Z,198.87
2023-04-24T02:44:37.349Z,202.04
2023-04-24T02:45:37.429Z,203.81
2023-04-24T02:46:37.476Z,201.44
2023-04-24T02:47:37.538Z,202.73
2023-04-24T02:48:37.592Z,203.59
2023-04-24T02:49:37.658Z,202.42
2023-04-24T02:50:37.732Z,200.39
2023-04-24T02:51:37.798Z,199.06
2023-04-24T02:52:37.843Z,201.66
2023-04-24T02:53:37.901Z,200.21
2023-04-24T02:54:37.969Z,201.09
2023-04-24T02:55:38.025Z,201.38
2023-04-24T02:56:38.094Z,200.89
2023-04-24T02:57:38.153Z,202.04
2023-04-24T02:58:38.209Z,198.15
2023-04-24T02:59:38.267Z,202.53
2023-04-24T03:00:38.344Z,199.27
2023-04-24T03:01:38.489Z,196.70
2023-04-24T03:02:38.547Z,198.99
2023-04-24T03:03:38.617Z,201.96
2023-04-24T03:04:38.667Z,200.53
2023-04-24T03:05:38.634Z,199.90
2023-04-24T03:06:38.694Z,199.10
2023-04-24T03:07:38.745Z,200.13
2023-04-24T03:08:38.889Z,198.03
2023-04-24T03:09:38.869Z,196.23
2023-04-24T03:10:38.914Z,198.42
2023-04-24T03:11:38.978Z,201.73
2023-04-24T03:12:39.024Z,201.57
2023-04-24T03:13:39.091Z,201.39
2023-04-24T03:14:39.158Z,199.32
2023-04-24T03:15:39.207Z,201.50
2023-04-24T03:16:39.312Z,198.49
2023-04-24T03:17:39.381Z,201.31
2023-04-24T03:18:39.379Z,201.36
2023-04-24T03:19:39.438Z,202.10
2023-04-24T03:20:39.510Z,197.58
2023-04-24T03:21:39.552Z,197.14
2023-04-24T03:22:39.621Z,200.12
2023-04-24T03:23:39.680Z,197.24
2023-04-24T03:24:39.770Z,199.23
2023-04-24T03:25:39.805Z,195.62
2023-04-24T03:26:39.858Z,200.46
2023-04-24T03:27:39.915Z,197.59
2023-04-24T03:28:39.964Z,196.66
2023-04-24T03:29:40.148Z,199.31
2023-04-24T03:30:40.104Z,199.84
2023-04-24T03:31:40.193Z,200.50
2023-04-24T03:32:40.309Z,200.00
2023-04-24T03:33:40.260Z,197.40
2023-04-24T03:34:40.311Z,197.09
2023-04-24T03:35:40.375Z,198.54
2023-04-24T03:36:40.423Z,198.81
2023-04-24T03:37:40.495Z,199.23
2023-04-24T03:38:40.534Z,196.72
2023-04-24T03:39:40.863Z,196.14
2023-04-24T03:40:40.656Z,198.35
2023-04-24T03:41:40.717Z,199.00
2023-04-24T03:42:40.776Z,199.19
2023-04-24T03:43:40.827Z,197.39
2023-04-24T03:44:40.880Z,197.00
2023-04-24T03:45:40.967Z,197.17
2023-04-24T03:46:41.085Z,195.19
2023-04-24T03:47:41.091Z,196.36
2023-04-24T03:48:41.123Z,196.62
2023-04-24T03:49:41.342Z,198.61
2023-04-24T03:50:41.237Z,198.21
2023-04-24T03:51:41.299Z,196.01
2023-04-24T03:52:41.336Z,192.57
2023-04-24T03:53:41.396Z,195.87
2023-04-24T03:54:41.447Z,197.53
2023-04-24T03:55:41.509Z,194.19
2023-04-24T03:56:41.563Z,197.09
2023-04-24T03:57:41.609Z,193.89
2023-04-24T03:58:41.674Z,197.24
2023-04-24T03:59:41.902Z,193.76
2023-04-24T04:00:41.792Z,193.85
2023-04-24T04:01:43.912Z,192.97
2023-04-24T04:02:42.151Z,195.36
2023-04-24T04:03:42.115Z,196.53
2023-04-24T04:04:42.216Z,195.27
2023-04-24T04:05:42.066Z,195.24
2023-04-24T04:06:42.211Z,196.19
2023-04-24T04:07:42.194Z,192.09
2023-04-24T04:08:42.252Z,192.09
2023-04-24T04:09:42.539Z,192.62
2023-04-24T04:10:42.373Z,195.83
2023-04-24T04:11:42.431Z,194.80
2023-04-24T04:12:42.479Z,193.40
2023-04-24T04:13:42.540Z,193.06
2023-04-24T04:14:42.602Z,193.84
2023-04-24T04:15:42.662Z,192.56
2023-04-24T04:16:42.785Z,194.03
2023-04-24T04:17:42.807Z,192.54
2023-04-24T04:18:42.845Z,194.52
2023-04-24T04:19:43.185Z,191.58
2023-04-24T04:20:42.971Z,191.92
2023-04-24T04:21:43.022Z,193.06
2023-04-24T04:22:44.625Z,192.96
2023-04-24T04:23:43.157Z,191.90
2023-04-24T04:24:43.213Z,190.49
2023-04-24T04:25:43.287Z,191.98
2023-04-24T04:26:43.334Z,191.42
2023-04-24T04:27:43.390Z,189.92
2023-04-24T04:28:43.464Z,192.39
2023-04-24T04:29:43.821Z,193.34
2023-04-24T04:30:43.587Z,195.34
2023-04-24T04:31:43.700Z,192.17
2023-04-24T04:32:43.771Z,193.58
2023-04-24T04:33:43.770Z,191.46
2023-04-24T04:34:43.849Z,189.21
2023-04-24T04:35:43.900Z,189.12
2023-04-24T04:36:43.992Z,190.43
2023-04-24T04:37:44.024Z,191.34
2023-04-24T04:38:44.108Z,192.39
2023-04-24T04:39:44.282Z,190.78
2023-04-24T04:40:44.206Z,188.35
2023-04-24T04:41:44.275Z,186.10
2023-04-24T04:42:44.331Z,190.44
2023-04-24T04:43:44.396Z,186.89
2023-04-24T04:44:44.470Z,187.58
2023-04-24T04:45:44.601Z,188.66
2023-04-24T04:46:44.578Z,189.72
2023-04-24T04:47:44.654Z,188.45
2023-04-24T04:48:44.705Z,186.57
2023-04-24T04:49:44.988Z,184.90
2023-04-24T04:50:44.829Z,191.90
2023-04-24T04:51:44.894Z,187.59
2023-04-24T04:52:44.946Z,189.14
2023-04-24T04:53:45.010Z,188.76
2023-04-24T04:54:45.089Z,183.95
2023-04-24T04:55:45.144Z,185.35
2023-04-24T04:56:45.206Z,184.11
2023-04-24T04:57:45.273Z,188.17
2023-04-24T04:58:45.369Z,188.15
2023-04-24T04:59:45.612Z,189.25
2023-04-24T05:00:45.468Z,185.14
2023-04-24T05:01:45.787Z,188.14
2023-04-24T05:02:45.651Z,184.43
2023-04-24T05:03:45.816Z,182.43
2023-04-24T05:04:45.936Z,185.73
2023-04-24T05:05:45.793Z,187.03
2023-04-24T05:06:45.859Z,187.78
2023-04-24T05:07:45.919Z,182.77
2023-04-24T05:08:45.987Z,186.83
2023-04-24T05:09:46.074Z,185.52
2023-04-24T05:10:46.113Z,184.30
2023-04-24T05:11:46.186Z,187.29
2023-04-24T05:12:46.538Z,185.05
2023-04-24T05:13:46.326Z,184.82
2023-04-24T05:14:46.386Z,185.27
2023-04-24T05:15:46.438Z,187.55
2023-04-24T05:16:46.520Z,185.00
2023-04-24T05:17:46.662Z,183.52
2023-04-24T05:18:46.638Z,179.44
2023-04-24T05:19:46.790Z,172.83
2023-04-24T05:20:46.768Z,168.05
2023-04-24T05:21:46.819Z,166.06
2023-04-24T05:22:46.881Z,163.57
2023-04-24T05:23:46.948Z,160.94
2023-04-24T05:24:47.003Z,165.09
2023-04-24T05:25:47.062Z,170.56
2023-04-24T05:26:47.112Z,171.89
2023-04-24T05:27:47.179Z,176.82
2023-04-24T05:28:47.256Z,179.05
2023-04-24T05:29:47.320Z,176.85
2023-04-24T05:30:47.378Z,181.16
2023-04-24T05:31:47.523Z,187.70
2023-04-24T05:32:47.508Z,194.71
2023-04-24T05:33:47.577Z,204.04
2023-04-24T05:34:47.647Z,210.06
2023-04-24T05:35:48.528Z,218.63
2023-04-24T05:36:47.770Z,229.66
2023-04-24T05:37:47.833Z,240.51
2023-04-24T05:38:47.854Z,247.84
2023-04-24T05:39:47.898Z,250.00
2023-04-24T05:40:47.921Z,250.00
2023-04-24T05:41:47.963Z,247.59
2023-04-24T05:42:47.981Z,249.14
2023-04-24T05:43:48.002Z,249.87
2023-04-24T05:44:48.032Z,248.47
2023-04-24T05:45:48.058Z,249.59
2023-04-24T05:46:48.174Z,250.00
2023-04-24T05:47:48.109Z,250.58
2023-04-24T05:48:48.097Z,250.00
2023-04-24T05:49:48.108Z,249.74
2023-04-24T05:50:48.123Z,248.33
2023-04-24T05:51:48.139Z,248.06
2023-04-24T05:52:48.130Z,250.00
2023-04-24T05:53:48.137Z,250.00
2023-04-24T05:54:48.164Z,250.00
2023-04-24T05:55:48.133Z,248.75
2023-04-24T05:56:48.143Z,249.35
2023-04-24T05:57:48.128Z,250.03
2023-04-24T05:58:48.113Z,249.81
2023-04-24T05:59:48.119Z,250.00
2023-04-24T06:00:48.106Z,250.00
2023-04-24T06:01:48.168Z,249.20
2023-04-24T06:02:48.284Z,250.05
2023-04-24T06:03:48.200Z,249.96
2023-04-24T06:04:48.258Z,249.90
2023-04-24T06:05:48.081Z,250.24
2023-04-24T06:06:48.071Z,249.80
2023-04-24T06:07:48.061Z,250.00
2023-04-24T06:08:48.070Z,249.63
2023-04-24T06:09:48.064Z,249.15
2023-04-24T06:10:48.082Z,249.92
2023-04-24T06:11:48.131Z,250.00
2023-04-24T06:12:48.182Z,249.78
2023-04-24T06:13:48.202Z,249.35
2023-04-24T06:14:48.277Z,250.00
2023-04-24T06:15:48.321Z,249.37
2023-04-24T06:16:50.209Z,249.18
2023-04-24T06:17:48.484Z,250.29
2023-04-24T06:18:48.498Z,249.35
2023-04-24T06:19:48.552Z,250.00
2023-04-24T06:20:48.595Z,249.82
2023-04-24T06:21:48.649Z,250.00
2023-04-24T06:22:48.706Z,250.00
2023-04-24T06:23:48.771Z,250.00
2023-04-24T06:24:48.811Z,248.73
2023-04-24T06:25:48.877Z,233.90
2023-04-24T06:26:48.885Z,190.19
2023-04-24T06:27:48.886Z,167.17
2023-04-24T06:28:48.918Z,154.33
2023-04-24T06:29:48.965Z,146.73
2023-04-24T06:30:49.040Z,142.09
2023-04-24T06:31:49.287Z,136.93
2023-04-24T06:32:49.204Z,129.27
2023-04-24T06:33:49.182Z,99.93
2023-04-24T06:34:49.245Z,74.52
2023-04-24T06:35:49.440Z,53.97
2023-04-24T06:36:49.287Z,31.76
2023-04-24T06:37:49.307Z,23.31
2023-04-24T06:38:49.315Z,16.20
2023-04-24T06:39:49.346Z,5.84
2023-04-24T06:40:49.346Z,8.50
2023-04-24T06:41:49.366Z,12.82
2023-04-24T06:42:49.404Z,12.97
2023-04-24T06:43:49.474Z,14.89
2023-04-24T06:44:49.480Z,21.35
2023-04-24T06:45:49.563Z,26.08
2023-04-24T06:46:49.546Z,28.45
2023-04-24T06:47:49.614Z,32.09
2023-04-24T06:48:49.570Z,34.91
2023-04-24T06:49:50.058Z,42.55
2023-04-24T06:50:49.607Z,47.12
2023-04-24T06:51:49.664Z,56.43
2023-04-24T06:52:49.722Z,66.93
2023-04-24T06:53:49.795Z,67.54
2023-04-24T06:54:49.854Z,72.76
2023-04-24T06:55:49.908Z,79.78
2023-04-24T06:56:49.978Z,86.79
2023-04-24T06:57:50.043Z,88.64
2023-04-24T06:58:50.079Z,84.37
2023-04-24T06:59:50.136Z,84.31
2023-04-24T07:00:50.192Z,86.77
2023-04-24T07:01:50.757Z,88.33
2023-04-24T07:02:50.393Z,92.81
2023-04-24T07:03:50.567Z,98.84
2023-04-24T07:04:50.372Z,102.39
2023-04-24T07:05:50.421Z,105.74
2023-04-24T07:06:50.445Z,107.42
2023-04-24T07:07:51.427Z,107.52
2023-04-24T07:08:50.495Z,107.94
2023-04-24T07:09:50.417Z,108.97
2023-04-24T07:10:50.419Z,106.94
2023-04-24T07:11:50.409Z,104.42
2023-04-24T07:12:50.406Z,107.22
2023-04-24T07:13:50.392Z,112.17
2023-04-24T07:14:50.395Z,116.04
2023-04-24T07:15:50.437Z,114.99
2023-04-24T07:16:50.376Z,101.38
2023-04-24T07:17:50.377Z,84.89
2023-04-24T07:18:50.373Z,78.88
2023-04-24T07:19:50.360Z,80.09
2023-04-24T07:20:50.358Z,72.10
2023-04-24T07:21:50.366Z,62.55
2023-04-24T07:22:50.370Z,54.51
2023-04-24T07:23:50.399Z,47.30
2023-04-24T07:24:50.439Z,39.46
2023-04-24T07:25:50.465Z,30.56
2023-04-24T07:26:50.470Z,25.15
2023-04-24T07:27:50.481Z,24.33
2023-04-24T07:28:50.504Z,25.00
2023-04-24T07:29:50.522Z,24.62
2023-04-24T07:30:50.555Z,25.00
2023-04-24T07:31:50.617Z,24.97
2023-04-24T07:32:50.650Z,24.92
2023-04-24T07:33:50.656Z,24.98
2023-04-24T07:34:50.698Z,25.02
2023-04-24T07:35:50.755Z,25.18
2023-04-24T07:36:50.814Z,25.29
2023-04-24T07:37:50.849Z,25.30
2023-04-24T07:38:50.892Z,25.00
2023-04-24T07:39:50.955Z,26.47
2023-04-24T07:40:51.126Z,25.73
2023-04-24T07:41:51.140Z,25.61
2023-04-24T07:42:51.177Z,25.83
2023-04-24T07:43:51.222Z,26.75
2023-04-24T07:44:51.285Z,28.37
2023-04-24T07:45:51.427Z,29.45
2023-04-24T07:46:51.504Z,31.30
2023-04-24T07:47:51.558Z,30.14
2023-04-24T07:49:05.328Z,31.03
2023-04-24T07:49:52.616Z,30.08
2023-04-24T07:50:51.622Z,30.62
2023-04-24T07:51:51.618Z,28.58
2023-04-24T07:52:51.634Z,27.66
2023-04-24T07:53:51.634Z,26.70
2023-04-24T07:54:51.645Z,26.52
2023-04-24T07:55:51.654Z,26.05
2023-04-24T07:56:51.663Z,25.69
2023-04-24T07:57:51.688Z,28.18
2023-04-24T07:58:51.725Z,29.21
2023-04-24T07:59:51.801Z,27.84
2023-04-24T08:00:51.871Z,26.80
2023-04-24T08:01:51.938Z,25.24
2023-04-24T08:02:52.129Z,25.00
2023-04-24T08:03:52.317Z,25.18
2023-04-24T08:04:52.344Z,25.00
2023-04-24T08:05:52.248Z,25.39
2023-04-24T08:06:52.301Z,26.30
2023-04-24T08:07:52.307Z,25.65
2023-04-24T08:08:52.344Z,25.00
2023-04-24T08:09:52.391Z,25.32
2023-04-24T08:10:52.434Z,25.06
2023-04-24T08:11:52.506Z,25.00
2023-04-24T08:12:52.533Z,26.54
2023-04-24T08:13:54.357Z,25.75
2023-04-24T08:14:52.613Z,25.84
2023-04-24T08:15:52.641Z,25.00
2023-04-24T08:16:52.782Z,26.57
2023-04-24T08:17:52.705Z,29.09
2023-04-24T08:18:52.686Z,32.08
2023-04-24T08:19:52.737Z,34.18
2023-04-24T08:20:52.798Z,39.61
2023-04-24T08:21:52.982Z,39.66
2023-04-24T08:22:52.933Z,39.99
2023-04-24T08:23:53.011Z,43.12
2023-04-24T08:24:53.071Z,44.22
2023-04-24T08:25:53.470Z,46.60
2023-04-24T08:26:53.228Z,47.43
2023-04-24T08:27:53.297Z,41.91
2023-04-24T08:28:53.378Z,44.14
2023-04-24T08:29:53.444Z,48.26
2023-04-24T08:30:53.489Z,52.12
2023-04-24T08:31:53.624Z,55.47
2023-04-24T08:32:53.695Z,54.58
2023-04-24T08:33:53.711Z,56.74
2023-04-24T08:34:53.788Z,66.66
2023-04-24T08:35:53.769Z,76.92
2023-04-24T08:36:53.802Z,85.96
2023-04-24T08:37:53.816Z,93.79
2023-04-24T08:38:53.883Z,101.10
2023-04-24T08:39:53.828Z,105.63
2023-04-24T08:40:53.878Z,110.93
2023-04-24T08:41:53.942Z,115.05
2023-04-24T08:42:54.000Z,120.22
2023-04-24T08:43:54.053Z,125.44
2023-04-24T08:44:54.160Z,129.52
2023-04-24T08:45:55.916Z,133.40
2023-04-24T08:46:54.248Z,138.00
2023-04-24T08:47:54.211Z,141.28
2023-04-24T08:48:54.208Z,145.33
2023-04-24T08:49:54.208Z,149.70
2023-04-24T08:50:54.237Z,153.51
2023-04-24T08:51:54.217Z,157.55
2023-04-24T08:52:54.208Z,161.20
2023-04-24T08:53:54.204Z,164.89
2023-04-24T08:54:54.232Z,168.28
2023-04-24T08:55:54.204Z,171.49
2023-04-24T08:56:54.227Z,174.42
2023-04-24T08:57:54.208Z,177.84
2023-04-24T08:58:55.103Z,181.29
2023-04-24T08:59:54.203Z,183.94
2023-04-24T09:00:55.052Z,187.83
2023-04-24T09:01:55.141Z,190.04
2023-04-24T09:02:54.280Z,193.13
2023-04-24T09:03:54.438Z,195.54
2023-04-24T09:04:54.238Z,198.13
2023-04-24T09:05:54.196Z,200.07
2023-04-24T09:06:54.183Z,202.60
2023-04-24T09:07:54.160Z,205.02
2023-04-24T09:08:54.175Z,207.25
2023-04-24T09:09:54.166Z,210.07
2023-04-24T09:10:54.142Z,213.01
2023-04-24T09:11:54.135Z,215.79
2023-04-24T09:12:54.134Z,218.07
2023-04-24T09:13:54.134Z,220.36
2023-04-24T09:14:54.112Z,222.09
2023-04-24T09:15:54.092Z,224.23
2023-04-24T09:16:54.304Z,226.90
2023-04-24T09:17:54.223Z,228.96
2023-04-24T09:18:54.067Z,229.33
2023-04-24T09:19:54.115Z,230.63
2023-04-24T09:20:54.079Z,231.20
2023-04-24T09:21:54.067Z,233.25
2023-04-24T09:22:54.048Z,234.87
2023-04-24T09:23:54.038Z,236.49
2023-04-24T09:24:54.077Z,237.26
2023-04-24T09:25:54.116Z,239.83
2023-04-24T09:26:54.163Z,241.09
2023-04-24T09:27:54.164Z,243.97
2023-04-24T09:28:54.203Z,245.93
2023-04-24T09:29:54.219Z,246.72
2023-04-24T09:30:54.244Z,248.88
2023-04-24T09:31:54.295Z,250.00
2023-04-24T09:32:54.344Z,250.00
2023-04-24T09:33:54.369Z,249.82
2023-04-24T09:34:54.379Z,250.00
2023-04-24T09:35:54.402Z,249.90
2023-04-24T09:36:54.433Z,250.06
2023-04-24T09:37:54.448Z,250.00
2023-04-24T09:38:54.456Z,249.96
2023-04-24T09:39:54.486Z,250.00
2023-04-24T09:40:54.510Z,250.00
2023-04-24T09:41:54.544Z,249.86
2023-04-24T09:42:54.559Z,249.99
2023-04-24T09:43:54.611Z,249.93
2023-04-24T09:45:01.466Z,249.78
2023-04-24T09:45:57.595Z,249.88
2023-04-24T09:46:54.557Z,249.93
2023-04-24T09:47:54.547Z,250.37
2023-04-24T09:48:54.526Z,251.06
2023-04-24T09:49:54.512Z,252.33
2023-04-24T09:50:54.502Z,253.56
2023-04-24T09:51:54.481Z,249.97
2023-04-24T09:52:54.617Z,249.58
2023-04-24T09:53:54.452Z,249.62
2023-04-24T09:54:54.553Z,249.53
2023-04-24T09:55:54.438Z,249.82
2023-04-24T09:56:54.415Z,250.00
2023-04-24T09:57:54.406Z,249.65
2023-04-24T09:58:54.395Z,249.68
2023-04-24T09:59:54.385Z,249.81
2023-04-24T10:00:54.407Z,250.00
2023-04-24T10:01:54.398Z,249.52
2023-04-24T10:02:54.459Z,250.00
2023-04-24T10:03:54.349Z,249.52
2023-04-24T10:04:54.385Z,249.73
2023-04-24T10:05:54.319Z,250.00
2023-04-24T10:06:54.307Z,249.97
2023-04-24T10:07:54.298Z,249.83
2023-04-24T10:08:54.279Z,249.54
2023-04-24T10:09:54.272Z,249.63
2023-04-24T10:10:54.276Z,248.66
2023-04-24T10:11:54.254Z,248.97
2023-04-24T10:12:54.244Z,249.07
2023-04-24T10:13:54.243Z,248.64
2023-04-24T10:14:54.232Z,248.35
2023-04-24T10:15:54.248Z,248.44
2023-04-24T10:16:54.224Z,247.91
2023-04-24T10:17:54.271Z,248.36
2023-04-24T10:18:54.206Z,247.41
2023-04-24T10:19:54.202Z,247.77
2023-04-24T10:20:54.195Z,247.68
2023-04-24T10:21:54.199Z,247.35
2023-04-24T10:22:54.183Z,247.38
2023-04-24T10:23:54.165Z,246.88
2023-04-24T10:24:54.156Z,246.69
2023-04-24T10:25:54.178Z,246.68
2023-04-24T10:26:54.145Z,245.75
2023-04-24T10:27:54.139Z,245.47
2023-04-24T10:28:54.124Z,245.91
2023-04-24T10:29:54.124Z,245.02
2023-04-24T10:30:54.114Z,245.00
2023-04-24T10:31:54.156Z,244.50
2023-04-24T10:32:54.210Z,244.65
2023-04-24T10:33:54.107Z,244.35
2023-04-24T10:34:54.266Z,243.68
2023-04-24T10:35:54.186Z,243.62
2023-04-24T10:36:56.453Z,243.13
2023-04-24T10:37:54.219Z,243.29
2023-04-24T10:38:54.225Z,242.79
2023-04-24T10:39:54.203Z,242.03
2023-04-24T10:40:54.221Z,241.67
2023-04-24T10:41:54.206Z,241.11
2023-04-24T10:42:55.745Z,240.42
2023-04-24T10:43:54.183Z,240.44
2023-04-24T10:44:54.351Z,240.39
2023-04-24T10:45:54.185Z,239.41
2023-04-24T10:46:54.188Z,239.36
2023-04-24T10:47:54.198Z,239.12
2023-04-24T10:48:54.153Z,238.62
2023-04-24T10:49:54.143Z,237.66
2023-04-24T10:50:54.150Z,237.31
2023-04-24T10:51:54.237Z,236.76
2023-04-24T10:52:54.120Z,236.66
2023-04-24T10:53:54.124Z,236.23
2023-04-24T10:54:54.132Z,235.52
2023-04-24T10:55:54.132Z,235.86
2023-04-24T10:56:54.126Z,235.72
2023-04-24T10:57:54.108Z,235.66
2023-04-24T10:58:54.125Z,235.08
2023-04-24T10:59:54.190Z,233.89
2023-04-24T11:00:54.192Z,234.54
2023-04-24T11:01:54.119Z,233.68
2023-04-24T11:02:54.336Z,232.44
2023-04-24T11:03:54.203Z,232.02
2023-04-24T11:04:54.129Z,231.26
2023-04-24T11:05:54.116Z,231.21
2023-04-24T11:06:54.102Z,230.77
2023-04-24T11:07:54.102Z,230.35
2023-04-24T11:08:54.108Z,230.04
2023-04-24T11:09:54.092Z,229.49
2023-04-24T11:10:54.096Z,229.16
2023-04-24T11:11:54.100Z,228.63
2023-04-24T11:12:54.083Z,228.17
2023-04-24T11:13:54.086Z,227.22
2023-04-24T11:14:54.079Z,226.89
2023-04-24T11:15:54.105Z,226.38
2023-04-24T11:16:54.101Z,226.22
2023-04-24T11:17:54.161Z,225.74
2023-04-24T11:18:54.652Z,225.12
2023-04-24T11:19:56.247Z,224.19
2023-04-24T11:20:54.074Z,223.99
2023-04-24T11:21:54.077Z,223.30
2023-04-24T11:22:54.064Z,222.45
2023-04-24T11:23:54.071Z,222.75
2023-04-24T11:24:54.077Z,222.41
2023-04-24T11:25:54.127Z,222.39
2023-04-24T11:26:54.184Z,222.37
2023-04-24T11:27:54.222Z,221.72
2023-04-24T11:28:54.276Z,220.62
2023-04-24T11:29:54.324Z,220.31
2023-04-24T11:30:54.372Z,220.30
2023-04-24T11:31:54.471Z,219.25
2023-04-24T11:32:54.544Z,218.81
2023-04-24T11:33:54.520Z,217.27
2023-04-24T11:34:54.577Z,217.41
2023-04-24T11:35:54.619Z,216.57
2023-04-24T11:36:54.651Z,216.47
2023-04-24T11:38:54.677Z,215.32
2023-04-24T11:39:54.711Z,215.72
2023-04-24T11:40:54.680Z,215.20
2023-04-24T11:41:54.672Z,214.24
2023-04-24T11:42:54.670Z,214.17
2023-04-24T11:43:55.604Z,213.07
2023-04-24T11:44:54.672Z,213.09
2023-04-24T11:45:54.688Z,212.61
2023-04-24T11:46:54.651Z,211.74
2023-04-24T11:47:54.801Z,211.36
2023-04-24T11:48:54.636Z,210.32
2023-04-24T11:49:54.662Z,210.44
2023-04-24T11:50:54.645Z,209.05
2023-04-24T11:51:56.519Z,209.27
2023-04-24T11:52:54.620Z,209.03
2023-04-24T11:54:01.524Z,208.74
2023-04-24T11:54:55.611Z,208.83
2023-04-24T11:55:54.600Z,208.99
2023-04-24T11:56:54.598Z,208.99
2023-04-24T11:57:54.612Z,206.68
2023-04-24T11:58:54.591Z,204.59
2023-04-24T11:59:54.659Z,202.82
2023-04-24T12:00:54.578Z,204.56
2023-04-24T12:01:54.580Z,204.48
2023-04-24T12:02:54.735Z,203.19
2023-04-24T12:03:54.733Z,200.15
2023-04-24T12:04:54.936Z,202.17
2023-04-24T12:05:54.581Z,201.55
2023-04-24T12:06:54.563Z,200.49
2023-04-24T12:07:54.546Z,199.62
2023-04-24T12:08:59.557Z,198.20
2023-04-24T12:09:55.540Z,198.22
2023-04-24T12:10:54.542Z,197.18
2023-04-24T12:11:54.528Z,195.63
2023-04-24T12:12:54.532Z,194.70
2023-04-24T12:13:54.521Z,194.46
2023-04-24T12:14:54.515Z,193.51
2023-04-24T12:15:54.575Z,192.67
2023-04-24T12:16:54.523Z,192.48
2023-04-24T12:17:54.544Z,191.65
2023-04-24T12:18:54.501Z,191.06
2023-04-24T12:19:54.516Z,191.43
2023-04-24T12:20:54.491Z,190.45
2023-04-24T12:21:54.496Z,191.09
2023-04-24T12:22:54.491Z,189.80
2023-04-24T12:23:54.483Z,189.95
2023-04-24T12:24:54.488Z,189.62
2023-04-24T12:25:54.533Z,189.46
2023-04-24T12:26:54.474Z,188.68
2023-04-24T12:27:54.468Z,188.31
2023-04-24T12:28:54.467Z,188.79
2023-04-24T12:29:54.460Z,188.49
2023-04-24T12:30:54.507Z,188.65
2023-04-24T12:31:54.587Z,188.03
2023-04-24T12:32:54.513Z,188.43
2023-04-24T12:33:54.446Z,187.16